sensor_id;sensor_type;location;lat;lon;timestamp;pressure;altitude;pressure_sealevel;temperature;humidity
15932;BME280;8065;49.520;11.284;2023-05-20T00:00:08;97697.25;;;18.13;72.04
15932;BME280;8065;49.520;11.284;2023-05-20T00:02:35;97687.22;;;18.10;72.47
15932;BME280;8065;49.520;11.284;2023-05-20T00:05:02;97687.84;;;17.99;72.65
15932;BME280;8065;49.520;11.284;2023-05-20T00:07:28;97686.50;;;18.13;72.22
15932;BME280;8065;49.520;11.284;2023-05-20T00:09:55;97683.41;;;18.11;72.44
15932;BME280;8065;49.520;11.284;2023-05-20T00:12:21;97671.81;;;18.07;72.73
15932;BME280;8065;49.520;11.284;2023-05-20T00:14:47;97681.59;;;18.18;72.18
15932;BME280;8065;49.520;11.284;2023-05-20T00:17:15;97677.72;;;18.16;72.39
15932;BME280;8065;49.520;11.284;2023-05-20T00:19:42;97681.00;;;18.06;72.75
15932;BME280;8065;49.520;11.284;2023-05-20T00:22:08;97678.69;;;18.04;72.95
15932;BME280;8065;49.520;11.284;2023-05-20T00:24:34;97678.63;;;18.00;73.03
15932;BME280;8065;49.520;11.284;2023-05-20T00:27:01;97674.75;;;17.98;73.42
15932;BME280;8065;49.520;11.284;2023-05-20T00:29:27;97678.41;;;17.86;73.91
15932;BME280;8065;49.520;11.284;2023-05-20T00:31:54;97664.59;;;17.88;73.89
15932;BME280;8065;49.520;11.284;2023-05-20T00:34:22;97666.94;;;17.89;73.81
15932;BME280;8065;49.520;11.284;2023-05-20T00:36:48;97662.78;;;17.69;74.54
15932;BME280;8065;49.520;11.284;2023-05-20T00:39:15;97672.00;;;17.94;74.04
15932;BME280;8065;49.520;11.284;2023-05-20T00:41:42;97678.97;;;17.73;74.72
15932;BME280;8065;49.520;11.284;2023-05-20T00:44:08;97678.97;;;17.73;74.63
15932;BME280;8065;49.520;11.284;2023-05-20T00:46:35;97673.78;;;17.64;75.25
15932;BME280;8065;49.520;11.284;2023-05-20T00:49:02;97677.16;;;17.80;74.72
15932;BME280;8065;49.520;11.284;2023-05-20T00:51:30;97675.00;;;17.89;74.17
15932;BME280;8065;49.520;11.284;2023-05-20T00:53:57;97673.78;;;17.64;74.91
15932;BME280;8065;49.520;11.284;2023-05-20T00:56:24;97670.94;;;17.53;75.36
15932;BME280;8065;49.520;11.284;2023-05-20T00:58:50;97660.00;;;17.88;74.21
15932;BME280;8065;49.520;11.284;2023-05-20T01:01:17;97663.50;;;17.66;75.52
15932;BME280;8065;49.520;11.284;2023-05-20T01:03:43;97649.38;;;17.73;74.92
15932;BME280;8065;49.520;11.284;2023-05-20T01:06:10;97652.03;;;17.69;75.06
15932;BME280;8065;49.520;11.284;2023-05-20T01:08:37;97650.38;;;17.87;74.43
15932;BME280;8065;49.520;11.284;2023-05-20T01:11:07;97646.97;;;17.90;74.15
15932;BME280;8065;49.520;11.284;2023-05-20T01:13:37;97644.16;;;17.60;75.47
15932;BME280;8065;49.520;11.284;2023-05-20T01:16:06;97652.38;;;17.67;74.95
15932;BME280;8065;49.520;11.284;2023-05-20T01:18:34;97643.81;;;17.62;75.04
15932;BME280;8065;49.520;11.284;2023-05-20T01:21:02;97638.84;;;17.64;75.51
15932;BME280;8065;49.520;11.284;2023-05-20T01:23:37;97637.50;;;17.74;74.88
15932;BME280;8065;49.520;11.284;2023-05-20T01:26:04;97632.41;;;17.91;74.43
15932;BME280;8065;49.520;11.284;2023-05-20T01:28:31;97630.50;;;17.69;74.78
15932;BME280;8065;49.520;11.284;2023-05-20T01:30:59;97632.09;;;17.96;74.33
15932;BME280;8065;49.520;11.284;2023-05-20T01:33:27;97628.47;;;17.85;74.49
15932;BME280;8065;49.520;11.284;2023-05-20T01:35:55;97632.13;;;18.00;74.16
15932;BME280;8065;49.520;11.284;2023-05-20T01:38:23;97643.03;;;17.84;74.55
15932;BME280;8065;49.520;11.284;2023-05-20T01:40:52;97641.59;;;17.45;76.21
15932;BME280;8065;49.520;11.284;2023-05-20T01:43:20;97633.44;;;17.83;74.95
15932;BME280;8065;49.520;11.284;2023-05-20T01:45:46;97632.78;;;17.67;75.09
15932;BME280;8065;49.520;11.284;2023-05-20T01:48:13;97638.59;;;17.95;74.25
15932;BME280;8065;49.520;11.284;2023-05-20T01:50:40;97622.88;;;17.71;74.91
15932;BME280;8065;49.520;11.284;2023-05-20T01:53:07;97629.56;;;17.81;74.61
15932;BME280;8065;49.520;11.284;2023-05-20T01:55:34;97627.53;;;17.74;74.82
15932;BME280;8065;49.520;11.284;2023-05-20T01:58:01;97636.00;;;17.76;74.80
15932;BME280;8065;49.520;11.284;2023-05-20T02:00:30;97629.66;;;17.65;75.14
15932;BME280;8065;49.520;11.284;2023-05-20T02:02:57;97623.44;;;17.61;75.41
15932;BME280;8065;49.520;11.284;2023-05-20T02:05:23;97624.28;;;17.65;74.96
15932;BME280;8065;49.520;11.284;2023-05-20T02:07:50;97637.25;;;17.59;75.31
15932;BME280;8065;49.520;11.284;2023-05-20T02:10:16;97618.69;;;17.51;75.50
15932;BME280;8065;49.520;11.284;2023-05-20T02:12:43;97621.63;;;17.19;76.49
15932;BME280;8065;49.520;11.284;2023-05-20T02:15:13;97622.41;;;17.20;76.69
15932;BME280;8065;49.520;11.284;2023-05-20T02:17:40;97619.34;;;17.44;75.84
15932;BME280;8065;49.520;11.284;2023-05-20T02:20:08;97616.47;;;17.33;76.44
15932;BME280;8065;49.520;11.284;2023-05-20T02:22:34;97615.81;;;17.40;76.22
15932;BME280;8065;49.520;11.284;2023-05-20T02:25:01;97621.66;;;17.00;77.63
15932;BME280;8065;49.520;11.284;2023-05-20T02:27:27;97625.97;;;17.27;76.72
15932;BME280;8065;49.520;11.284;2023-05-20T02:29:54;97612.25;;;17.32;76.37
15932;BME280;8065;49.520;11.284;2023-05-20T02:32:21;97622.91;;;17.06;77.28
15932;BME280;8065;49.520;11.284;2023-05-20T02:34:52;97622.16;;;17.28;76.51
15932;BME280;8065;49.520;11.284;2023-05-20T02:37:18;97629.31;;;17.44;75.74
15932;BME280;8065;49.520;11.284;2023-05-20T02:39:45;97627.34;;;17.41;75.92
15932;BME280;8065;49.520;11.284;2023-05-20T02:42:11;97623.94;;;17.44;75.73
15932;BME280;8065;49.520;11.284;2023-05-20T02:44:37;97630.84;;;17.45;76.06
15932;BME280;8065;49.520;11.284;2023-05-20T02:47:04;97635.50;;;17.48;75.61
15932;BME280;8065;49.520;11.284;2023-05-20T02:49:32;97634.56;;;17.36;76.26
15932;BME280;8065;49.520;11.284;2023-05-20T02:51:58;97624.53;;;17.33;76.13
15932;BME280;8065;49.520;11.284;2023-05-20T02:54:24;97629.88;;;17.30;76.21
15932;BME280;8065;49.520;11.284;2023-05-20T02:56:51;97632.91;;;17.28;76.29
15932;BME280;8065;49.520;11.284;2023-05-20T02:59:17;97634.47;;;17.29;76.67
15932;BME280;8065;49.520;11.284;2023-05-20T03:01:44;97634.75;;;17.24;76.70
15932;BME280;8065;49.520;11.284;2023-05-20T03:04:10;97634.41;;;17.26;76.78
15932;BME280;8065;49.520;11.284;2023-05-20T03:06:38;97634.47;;;17.29;76.36
15932;BME280;8065;49.520;11.284;2023-05-20T03:09:08;97636.72;;;17.27;76.61
15932;BME280;8065;49.520;11.284;2023-05-20T03:11:35;97635.25;;;17.30;76.37
15932;BME280;8065;49.520;11.284;2023-05-20T03:14:02;97639.28;;;17.20;76.81
15932;BME280;8065;49.520;11.284;2023-05-20T03:16:28;97627.41;;;17.21;76.83
15932;BME280;8065;49.520;11.284;2023-05-20T03:18:55;97638.19;;;17.02;77.75
15932;BME280;8065;49.520;11.284;2023-05-20T03:21:21;97643.50;;;16.79;78.83
15932;BME280;8065;49.520;11.284;2023-05-20T03:23:49;97648.50;;;17.00;77.84
15932;BME280;8065;49.520;11.284;2023-05-20T03:26:16;97650.50;;;16.84;78.38
15932;BME280;8065;49.520;11.284;2023-05-20T03:28:42;97647.66;;;16.96;77.82
15932;BME280;8065;49.520;11.284;2023-05-20T03:31:09;97650.22;;;16.89;78.13
15932;BME280;8065;49.520;11.284;2023-05-20T03:33:35;97654.00;;;17.07;77.61
15932;BME280;8065;49.520;11.284;2023-05-20T03:36:02;97651.47;;;16.95;77.92
15932;BME280;8065;49.520;11.284;2023-05-20T03:38:29;97651.59;;;17.02;77.74
15932;BME280;8065;49.520;11.284;2023-05-20T03:40:56;97655.56;;;17.08;77.34
15932;BME280;8065;49.520;11.284;2023-05-20T03:43:23;97653.03;;;16.96;78.11
15932;BME280;8065;49.520;11.284;2023-05-20T03:45:51;97663.22;;;17.29;76.95
15932;BME280;8065;49.520;11.284;2023-05-20T03:48:17;97655.69;;;17.15;77.36
15932;BME280;8065;49.520;11.284;2023-05-20T03:50:44;97656.13;;;16.98;77.97
15932;BME280;8065;49.520;11.284;2023-05-20T03:53:11;97641.72;;;17.06;78.04
15932;BME280;8065;49.520;11.284;2023-05-20T03:55:37;97645.06;;;16.80;78.78
15932;BME280;8065;49.520;11.284;2023-05-20T03:58:06;97643.69;;;17.09;77.73
15932;BME280;8065;49.520;11.284;2023-05-20T04:00:32;97641.50;;;16.95;78.59
15932;BME280;8065;49.520;11.284;2023-05-20T04:02:59;97636.53;;;17.17;77.54
15932;BME280;8065;49.520;11.284;2023-05-20T04:05:26;97638.06;;;16.76;79.54
15932;BME280;8065;49.520;11.284;2023-05-20T04:07:52;97638.63;;;16.85;78.81
15932;BME280;8065;49.520;11.284;2023-05-20T04:10:19;97640.47;;;17.23;77.42
15932;BME280;8065;49.520;11.284;2023-05-20T04:12:46;97640.59;;;16.88;78.78
15932;BME280;8065;49.520;11.284;2023-05-20T04:15:14;97641.16;;;16.97;78.47
15932;BME280;8065;49.520;11.284;2023-05-20T04:17:41;97644.56;;;16.94;78.46
15932;BME280;8065;49.520;11.284;2023-05-20T04:20:08;97644.06;;;16.88;79.07
15932;BME280;8065;49.520;11.284;2023-05-20T04:22:35;97632.06;;;17.24;77.70
15932;BME280;8065;49.520;11.284;2023-05-20T04:25:04;97639.25;;;16.97;78.47
15932;BME280;8065;49.520;11.284;2023-05-20T04:27:31;97639.38;;;17.04;78.80
15932;BME280;8065;49.520;11.284;2023-05-20T04:29:58;97639.72;;;17.22;77.75
15932;BME280;8065;49.520;11.284;2023-05-20T04:32:27;97634.16;;;17.12;78.33
15932;BME280;8065;49.520;11.284;2023-05-20T04:34:54;97643.41;;;16.95;78.89
15932;BME280;8065;49.520;11.284;2023-05-20T04:37:21;97640.03;;;16.98;78.81
15932;BME280;8065;49.520;11.284;2023-05-20T04:39:48;97632.28;;;17.38;77.39
15932;BME280;8065;49.520;11.284;2023-05-20T04:42:15;97634.91;;;17.12;78.73
15932;BME280;8065;49.520;11.284;2023-05-20T04:44:42;97640.16;;;17.05;78.81
15932;BME280;8065;49.520;11.284;2023-05-20T04:47:10;97629.88;;;16.88;79.76
15932;BME280;8065;49.520;11.284;2023-05-20T04:49:38;97635.34;;;17.14;78.49
15932;BME280;8065;49.520;11.284;2023-05-20T04:52:05;97644.09;;;17.11;78.99
15932;BME280;8065;49.520;11.284;2023-05-20T04:54:31;97645.84;;;17.23;78.73
15932;BME280;8065;49.520;11.284;2023-05-20T04:56:58;97634.69;;;17.44;77.82
15932;BME280;8065;49.520;11.284;2023-05-20T04:59:24;97644.59;;;17.40;78.06
15932;BME280;8065;49.520;11.284;2023-05-20T05:01:51;97643.34;;;17.56;77.78
15932;BME280;8065;49.520;11.284;2023-05-20T05:04:17;97644.53;;;17.59;77.65
15932;BME280;8065;49.520;11.284;2023-05-20T05:06:46;97651.34;;;17.76;76.79
15932;BME280;8065;49.520;11.284;2023-05-20T05:09:13;97644.00;;;17.50;77.98
15932;BME280;8065;49.520;11.284;2023-05-20T05:11:39;97639.78;;;17.72;77.31
15932;BME280;8065;49.520;11.284;2023-05-20T05:14:06;97642.09;;;17.73;76.92
15932;BME280;8065;49.520;11.284;2023-05-20T05:16:32;97631.00;;;17.75;76.92
15932;BME280;8065;49.520;11.284;2023-05-20T05:18:59;97631.72;;;17.98;76.49
15932;BME280;8065;49.520;11.284;2023-05-20T05:21:25;97626.03;;;17.77;77.35
15932;BME280;8065;49.520;11.284;2023-05-20T05:23:53;97627.63;;;18.08;76.23
15932;BME280;8065;49.520;11.284;2023-05-20T05:26:19;97630.63;;;18.02;75.69
15932;BME280;8065;49.520;11.284;2023-05-20T05:28:46;97623.56;;;18.17;75.85
15932;BME280;8065;49.520;11.284;2023-05-20T05:31:12;97620.56;;;18.26;75.66
15932;BME280;8065;49.520;11.284;2023-05-20T05:33:39;97621.06;;;18.35;75.24
15932;BME280;8065;49.520;11.284;2023-05-20T05:36:05;97618.38;;;18.35;75.17
15932;BME280;8065;49.520;11.284;2023-05-20T05:38:32;97613.91;;;18.46;74.61
15932;BME280;8065;49.520;11.284;2023-05-20T05:41:00;97615.59;;;18.58;74.25
15932;BME280;8065;49.520;11.284;2023-05-20T05:43:26;97614.94;;;18.64;74.31
15932;BME280;8065;49.520;11.284;2023-05-20T05:45:53;97605.59;;;18.58;74.30
15932;BME280;8065;49.520;11.284;2023-05-20T05:48:20;97606.56;;;18.73;73.74
15932;BME280;8065;49.520;11.284;2023-05-20T05:50:46;97609.00;;;18.85;73.31
15932;BME280;8065;49.520;11.284;2023-05-20T05:53:13;97603.56;;;18.48;74.44
15932;BME280;8065;49.520;11.284;2023-05-20T05:55:39;97608.97;;;18.82;73.46
15932;BME280;8065;49.520;11.284;2023-05-20T05:58:07;97610.44;;;18.76;73.97
15932;BME280;8065;49.520;11.284;2023-05-20T06:00:33;97612.69;;;19.07;73.40
15932;BME280;8065;49.520;11.284;2023-05-20T06:03:00;97613.03;;;19.02;73.48
15932;BME280;8065;49.520;11.284;2023-05-20T06:05:26;97611.34;;;18.87;72.41
15932;BME280;8065;49.520;11.284;2023-05-20T06:07:53;97606.69;;;18.84;72.75
15932;BME280;8065;49.520;11.284;2023-05-20T06:10:19;97606.09;;;19.01;72.06
15932;BME280;8065;49.520;11.284;2023-05-20T06:12:45;97590.53;;;19.24;72.20
15932;BME280;8065;49.520;11.284;2023-05-20T06:15:13;97589.50;;;19.40;72.39
15932;BME280;8065;49.520;11.284;2023-05-20T06:17:40;97586.84;;;19.43;71.75
15932;BME280;8065;49.520;11.284;2023-05-20T06:20:07;97581.97;;;19.56;70.97
15932;BME280;8065;49.520;11.284;2023-05-20T06:22:33;97586.88;;;19.47;71.44
15932;BME280;8065;49.520;11.284;2023-05-20T06:25:00;97575.06;;;19.62;71.32
15932;BME280;8065;49.520;11.284;2023-05-20T06:27:27;97583.56;;;19.64;70.63
15932;BME280;8065;49.520;11.284;2023-05-20T06:29:53;97568.13;;;19.61;70.19
15932;BME280;8065;49.520;11.284;2023-05-20T06:32:21;97575.91;;;19.73;70.54
15932;BME280;8065;49.520;11.284;2023-05-20T06:34:47;97584.47;;;19.86;70.74
15932;BME280;8065;49.520;11.284;2023-05-20T06:37:14;97579.53;;;19.44;70.41
15932;BME280;8065;49.520;11.284;2023-05-20T06:39:40;97578.56;;;19.66;69.56
15932;BME280;8065;49.520;11.284;2023-05-20T06:42:07;97574.31;;;19.65;69.64
15932;BME280;8065;49.520;11.284;2023-05-20T06:44:33;97578.34;;;18.97;71.41
15932;BME280;8065;49.520;11.284;2023-05-20T06:47:00;97578.91;;;19.61;70.17
15932;BME280;8065;49.520;11.284;2023-05-20T06:49:27;97581.34;;;19.32;69.42
15932;BME280;8065;49.520;11.284;2023-05-20T06:51:54;97582.50;;;19.31;69.85
15932;BME280;8065;49.520;11.284;2023-05-20T06:54:20;97576.97;;;19.17;70.43
15932;BME280;8065;49.520;11.284;2023-05-20T06:56:47;97565.88;;;19.70;69.21
15932;BME280;8065;49.520;11.284;2023-05-20T06:59:13;97570.28;;;19.92;69.10
15932;BME280;8065;49.520;11.284;2023-05-20T07:01:39;97563.81;;;20.15;67.90
15932;BME280;8065;49.520;11.284;2023-05-20T07:04:06;97565.34;;;20.12;67.92
15932;BME280;8065;49.520;11.284;2023-05-20T07:06:34;97566.19;;;20.27;67.36
15932;BME280;8065;49.520;11.284;2023-05-20T07:09:00;97571.97;;;20.25;67.97
15932;BME280;8065;49.520;11.284;2023-05-20T07:11:27;97563.09;;;20.25;67.78
15932;BME280;8065;49.520;11.284;2023-05-20T07:13:53;97563.13;;;20.32;67.39
15932;BME280;8065;49.520;11.284;2023-05-20T07:16:19;97559.34;;;20.47;67.70
15932;BME280;8065;49.520;11.284;2023-05-20T07:18:46;97556.69;;;20.61;67.47
15932;BME280;8065;49.520;11.284;2023-05-20T07:21:12;97554.81;;;20.80;66.31
15932;BME280;8065;49.520;11.284;2023-05-20T07:23:40;97557.13;;;20.92;66.51
15932;BME280;8065;49.520;11.284;2023-05-20T07:26:07;97559.66;;;20.35;66.93
15932;BME280;8065;49.520;11.284;2023-05-20T07:28:33;97548.06;;;20.31;67.37
15932;BME280;8065;49.520;11.284;2023-05-20T07:31:00;97557.06;;;20.56;66.14
15932;BME280;8065;49.520;11.284;2023-05-20T07:33:27;97540.81;;;20.39;66.93
15932;BME280;8065;49.520;11.284;2023-05-20T07:35:54;97550.75;;;20.27;67.22
15932;BME280;8065;49.520;11.284;2023-05-20T07:38:21;97540.91;;;20.78;66.72
15932;BME280;8065;49.520;11.284;2023-05-20T07:40:48;97540.91;;;20.78;66.69
15932;BME280;8065;49.520;11.284;2023-05-20T07:43:15;97544.38;;;20.89;66.06
15932;BME280;8065;49.520;11.284;2023-05-20T07:45:42;97537.13;;;21.21;66.11
15932;BME280;8065;49.520;11.284;2023-05-20T07:48:08;97544.44;;;21.46;65.02
15932;BME280;8065;49.520;11.284;2023-05-20T07:50:35;97549.44;;;21.08;65.33
15932;BME280;8065;49.520;11.284;2023-05-20T07:53:01;97538.25;;;21.20;65.15
15932;BME280;8065;49.520;11.284;2023-05-20T07:55:28;97540.97;;;21.38;64.19
15932;BME280;8065;49.520;11.284;2023-05-20T07:57:56;97543.69;;;21.31;64.35
15932;BME280;8065;49.520;11.284;2023-05-20T08:00:23;97549.81;;;21.74;65.27
15932;BME280;8065;49.520;11.284;2023-05-20T08:02:49;97545.94;;;21.79;63.66
15932;BME280;8065;49.520;11.284;2023-05-20T08:05:16;97542.00;;;22.19;63.51
15932;BME280;8065;49.520;11.284;2023-05-20T08:07:42;97542.88;;;21.66;62.24
15932;BME280;8065;49.520;11.284;2023-05-20T08:10:09;97548.59;;;21.97;62.28
15932;BME280;8065;49.520;11.284;2023-05-20T08:12:36;97539.31;;;22.12;62.48
15932;BME280;8065;49.520;11.284;2023-05-20T08:15:04;97537.09;;;21.57;63.32
15932;BME280;8065;49.520;11.284;2023-05-20T08:17:31;97541.63;;;22.10;62.33
15932;BME280;8065;49.520;11.284;2023-05-20T08:19:58;97530.38;;;22.22;61.60
15932;BME280;8065;49.520;11.284;2023-05-20T08:22:24;97523.97;;;22.64;61.38
15932;BME280;8065;49.520;11.284;2023-05-20T08:24:51;97521.16;;;22.82;60.52
15932;BME280;8065;49.520;11.284;2023-05-20T08:27:17;97515.75;;;22.78;60.50
15932;BME280;8065;49.520;11.284;2023-05-20T08:29:44;97506.50;;;22.72;60.58
15932;BME280;8065;49.520;11.284;2023-05-20T08:32:12;97507.88;;;22.39;60.56
15932;BME280;8065;49.520;11.284;2023-05-20T08:34:38;97505.28;;;21.97;61.72
15932;BME280;8065;49.520;11.284;2023-05-20T08:37:05;97509.19;;;22.76;60.56
15932;BME280;8065;49.520;11.284;2023-05-20T08:39:31;97503.00;;;22.75;61.24
15932;BME280;8065;49.520;11.284;2023-05-20T08:41:58;97500.50;;;23.02;60.64
15932;BME280;8065;49.520;11.284;2023-05-20T08:44:25;97497.56;;;23.31;61.18
15932;BME280;8065;49.520;11.284;2023-05-20T08:46:53;97518.66;;;23.09;60.38
15932;BME280;8065;49.520;11.284;2023-05-20T08:49:21;97515.09;;;22.56;60.05
15932;BME280;8065;49.520;11.284;2023-05-20T08:51:48;97497.09;;;23.39;58.73
15932;BME280;8065;49.520;11.284;2023-05-20T08:54:15;97497.97;;;23.29;59.48
15932;BME280;8065;49.520;11.284;2023-05-20T08:56:43;97498.38;;;23.28;58.57
15932;BME280;8065;49.520;11.284;2023-05-20T08:59:10;97501.00;;;23.35;58.28
15932;BME280;8065;49.520;11.284;2023-05-20T09:01:40;97502.94;;;23.38;58.48
15932;BME280;8065;49.520;11.284;2023-05-20T09:04:07;97493.41;;;23.60;57.74
15932;BME280;8065;49.520;11.284;2023-05-20T09:06:42;97493.63;;;23.39;58.96
15932;BME280;8065;49.520;11.284;2023-05-20T09:09:09;97493.53;;;23.46;59.61
15932;BME280;8065;49.520;11.284;2023-05-20T09:11:36;97492.97;;;23.65;59.18
15932;BME280;8065;49.520;11.284;2023-05-20T09:14:03;97501.72;;;23.83;57.68
15932;BME280;8065;49.520;11.284;2023-05-20T09:16:29;97502.59;;;23.73;57.44
15932;BME280;8065;49.520;11.284;2023-05-20T09:18:56;97502.09;;;23.82;58.29
15932;BME280;8065;49.520;11.284;2023-05-20T09:21:25;97507.09;;;23.87;58.46
15932;BME280;8065;49.520;11.284;2023-05-20T09:23:53;97511.69;;;23.94;57.21
15932;BME280;8065;49.520;11.284;2023-05-20T09:26:21;97519.34;;;23.65;58.33
15932;BME280;8065;49.520;11.284;2023-05-20T09:28:49;97517.72;;;24.08;57.93
15932;BME280;8065;49.520;11.284;2023-05-20T09:31:15;97515.06;;;24.66;56.74
15932;BME280;8065;49.520;11.284;2023-05-20T09:33:42;97517.50;;;24.57;56.20
15932;BME280;8065;49.520;11.284;2023-05-20T09:36:09;97525.28;;;24.55;55.21
15932;BME280;8065;49.520;11.284;2023-05-20T09:38:37;97523.41;;;24.51;56.18
15932;BME280;8065;49.520;11.284;2023-05-20T09:41:06;97517.22;;;24.47;55.88
15932;BME280;8065;49.520;11.284;2023-05-20T09:43:33;97513.41;;;24.72;55.77
15932;BME280;8065;49.520;11.284;2023-05-20T09:46:00;97512.94;;;24.77;57.72
15932;BME280;8065;49.520;11.284;2023-05-20T09:48:27;97507.78;;;24.86;55.01
15932;BME280;8065;49.520;11.284;2023-05-20T09:50:55;97505.59;;;24.47;56.19
15932;BME280;8065;49.520;11.284;2023-05-20T09:53:25;97502.28;;;24.63;55.75
15932;BME280;8065;49.520;11.284;2023-05-20T09:55:52;97505.34;;;24.65;56.26
15932;BME280;8065;49.520;11.284;2023-05-20T09:58:21;97500.81;;;23.94;57.14
15932;BME280;8065;49.520;11.284;2023-05-20T10:00:47;97496.19;;;24.82;56.27
15932;BME280;8065;49.520;11.284;2023-05-20T10:03:14;97499.28;;;25.31;55.13
15932;BME280;8065;49.520;11.284;2023-05-20T10:05:47;97495.22;;;25.66;54.43
15932;BME280;8065;49.520;11.284;2023-05-20T10:08:27;97494.38;;;25.69;53.79
15932;BME280;8065;49.520;11.284;2023-05-20T10:11:04;97491.44;;;25.79;52.82
15932;BME280;8065;49.520;11.284;2023-05-20T10:13:49;97500.34;;;25.60;53.90
15932;BME280;8065;49.520;11.284;2023-05-20T10:16:24;97488.50;;;25.70;54.26
15932;BME280;8065;49.520;11.284;2023-05-20T10:18:59;97478.59;;;25.37;54.47
15932;BME280;8065;49.520;11.284;2023-05-20T10:21:31;97487.81;;;25.43;53.96
15932;BME280;8065;49.520;11.284;2023-05-20T10:24:05;97480.63;;;25.96;53.29
15932;BME280;8065;49.520;11.284;2023-05-20T10:26:34;97476.31;;;25.78;53.87
15932;BME280;8065;49.520;11.284;2023-05-20T10:29:13;97488.13;;;25.25;54.09
15932;BME280;8065;49.520;11.284;2023-05-20T10:31:43;97492.47;;;25.42;54.80
15932;BME280;8065;49.520;11.284;2023-05-20T10:34:13;97477.84;;;25.79;54.05
15932;BME280;8065;49.520;11.284;2023-05-20T10:36:44;97477.97;;;25.49;54.10
15932;BME280;8065;49.520;11.284;2023-05-20T10:39:14;97479.66;;;25.66;54.24
15932;BME280;8065;49.520;11.284;2023-05-20T10:41:41;97482.38;;;25.86;53.70
15932;BME280;8065;49.520;11.284;2023-05-20T10:44:09;97465.59;;;26.07;53.56
15932;BME280;8065;49.520;11.284;2023-05-20T10:46:36;97467.50;;;25.91;54.15
15932;BME280;8065;49.520;11.284;2023-05-20T10:49:03;97454.88;;;26.36;52.54
15932;BME280;8065;49.520;11.284;2023-05-20T10:51:30;97462.44;;;26.09;52.98
15932;BME280;8065;49.520;11.284;2023-05-20T10:53:57;97457.75;;;26.29;53.42
15932;BME280;8065;49.520;11.284;2023-05-20T10:56:25;97453.63;;;26.21;54.08
15932;BME280;8065;49.520;11.284;2023-05-20T10:58:53;97450.41;;;26.26;54.06
15932;BME280;8065;49.520;11.284;2023-05-20T11:01:24;97454.00;;;26.03;53.61
15932;BME280;8065;49.520;11.284;2023-05-20T11:03:53;97456.75;;;25.84;52.96
15932;BME280;8065;49.520;11.284;2023-05-20T11:06:25;97457.66;;;25.77;53.43
15932;BME280;8065;49.520;11.284;2023-05-20T11:08:52;97451.94;;;25.91;53.65
15932;BME280;8065;49.520;11.284;2023-05-20T11:11:21;97455.38;;;26.11;54.26
15932;BME280;8065;49.520;11.284;2023-05-20T11:13:49;97440.00;;;25.65;53.92
15932;BME280;8065;49.520;11.284;2023-05-20T11:16:16;97438.84;;;26.02;53.80
15932;BME280;8065;49.520;11.284;2023-05-20T11:18:44;97440.69;;;25.69;52.69
15932;BME280;8065;49.520;11.284;2023-05-20T11:21:13;97433.50;;;26.15;53.83
15932;BME280;8065;49.520;11.284;2023-05-20T11:23:40;97439.03;;;25.75;53.97
15932;BME280;8065;49.520;11.284;2023-05-20T11:26:07;97431.28;;;26.10;52.96
15932;BME280;8065;49.520;11.284;2023-05-20T11:28:34;97436.09;;;26.22;53.65
15932;BME280;8065;49.520;11.284;2023-05-20T11:31:01;97423.75;;;26.54;52.78
15932;BME280;8065;49.520;11.284;2023-05-20T11:33:28;97435.19;;;26.09;53.26
15932;BME280;8065;49.520;11.284;2023-05-20T11:35:56;97425.06;;;26.09;52.76
15932;BME280;8065;49.520;11.284;2023-05-20T11:38:23;97424.41;;;26.22;53.39
15932;BME280;8065;49.520;11.284;2023-05-20T11:40:51;97421.38;;;26.72;52.00
15932;BME280;8065;49.520;11.284;2023-05-20T11:43:18;97435.66;;;26.60;52.52
15932;BME280;8065;49.520;11.284;2023-05-20T11:45:46;97427.31;;;27.16;51.93
15932;BME280;8065;49.520;11.284;2023-05-20T11:48:13;97429.53;;;26.88;51.30
15932;BME280;8065;49.520;11.284;2023-05-20T11:50:41;97443.53;;;26.02;53.10
15932;BME280;8065;49.520;11.284;2023-05-20T11:53:13;97435.06;;;26.16;52.91
15932;BME280;8065;49.520;11.284;2023-05-20T11:55:44;97427.91;;;26.58;53.99
15932;BME280;8065;49.520;11.284;2023-05-20T11:58:14;97426.50;;;25.58;54.56
15932;BME280;8065;49.520;11.284;2023-05-20T12:00:41;97426.94;;;26.32;53.05
15932;BME280;8065;49.520;11.284;2023-05-20T12:03:07;97408.22;;;26.51;53.10
15932;BME280;8065;49.520;11.284;2023-05-20T12:05:34;97418.81;;;26.65;52.39
15932;BME280;8065;49.520;11.284;2023-05-20T12:08:00;97421.38;;;26.72;52.33
15932;BME280;8065;49.520;11.284;2023-05-20T12:10:29;97423.06;;;26.66;52.11
15932;BME280;8065;49.520;11.284;2023-05-20T12:12:56;97420.50;;;26.75;52.57
15932;BME280;8065;49.520;11.284;2023-05-20T12:15:22;97420.59;;;26.71;52.14
15932;BME280;8065;49.520;11.284;2023-05-20T12:17:51;97418.50;;;25.91;53.78
15932;BME280;8065;49.520;11.284;2023-05-20T12:20:20;97417.94;;;26.52;53.96
15932;BME280;8065;49.520;11.284;2023-05-20T12:22:47;97417.28;;;26.64;53.72
15932;BME280;8065;49.520;11.284;2023-05-20T12:25:15;97409.22;;;26.89;52.47
15932;BME280;8065;49.520;11.284;2023-05-20T12:27:43;97410.25;;;26.95;52.62
15932;BME280;8065;49.520;11.284;2023-05-20T12:30:14;97411.44;;;26.94;53.22
15932;BME280;8065;49.520;11.284;2023-05-20T12:32:40;97403.63;;;26.64;53.42
15932;BME280;8065;49.520;11.284;2023-05-20T12:35:08;97396.94;;;27.14;53.20
15932;BME280;8065;49.520;11.284;2023-05-20T12:37:35;97406.84;;;26.91;53.56
15932;BME280;8065;49.520;11.284;2023-05-20T12:40:02;97397.78;;;27.27;51.22
15932;BME280;8065;49.520;11.284;2023-05-20T12:42:32;97399.84;;;26.90;53.11
15932;BME280;8065;49.520;11.284;2023-05-20T12:45:00;97407.81;;;27.01;52.18
15932;BME280;8065;49.520;11.284;2023-05-20T12:47:26;97408.31;;;26.11;53.69
15932;BME280;8065;49.520;11.284;2023-05-20T12:49:53;97400.03;;;26.34;52.80
15932;BME280;8065;49.520;11.284;2023-05-20T12:52:20;97398.28;;;26.60;53.01
15932;BME280;8065;49.520;11.284;2023-05-20T12:54:47;97393.06;;;26.82;52.44
15932;BME280;8065;49.520;11.284;2023-05-20T12:57:14;97397.59;;;26.20;53.40
15932;BME280;8065;49.520;11.284;2023-05-20T12:59:40;97391.53;;;26.81;51.95